Hlavní strana
METAR-TAF:

METAR-TAF

Letiště :

Rørvik, Norsko

zeměpisná šířka: 64-50N, zeměpisná délka: 011-09E, výška: 4 m

Aktuální stav počasí

Zpráva byla vytvořena před 7 hodinami a 9 minutami, v 19:50 UTC
Západojihozápadní vítr 7 kt
Teplota 14°C
Vlhkost vzduchu 94%
Tlak 1000 hPa
Viditelnost 10 km a více
Skoro jasno ve výšce 3500 ft, Cumulonimbus.
Skoro jasno ve výšce 4000 ft
Polojasno ve výšce 8000 ft

METAR: ENRM 191950Z 25007KT 9999 FEW035CB FEW040 SCT080 14/13 Q1000

Čas: 04:59 (02:59 UTC)

Předpověď počasí

Zpráva byla vytvořena před 18 hodinami a 59 minutami, v 08:00 UTC
Předpověď platná od 19 v 09 UTC do 19 v 12 UTC
vítr z různých směrů 6 kt
Viditelnost 10 km a více
Žádná oblačnost pod 1500 m, nevyskytují se cumulonimby.

TAF: ENRM 190800Z 1909/1912 VRB06KT CAVOK

Stav a předpovědi počasí z více než 4 000 letišť (zprávy METAR a TAF).

Červené a žluté tečky na mapě představují dostupné meteorologické stanice.

Když kurzor umístíte na tečku, zobrazí se název stanice.

Pak kliknutím zobrazíte stav a předpověď počasí.

Chcete-li změnit mapu, kliknutím na zelené tlačítko se znaménkem +mapu přiblížíte, kliknutím na zelené tlačítko se znaménkem – mapu oddálíte a kliknutím na zelené šipky přejdete na sousední mapy.


METAR-TAF: